createdAt,value
2019-03-27T00:04:39.765Z,31.80
2019-03-27T00:09:43.372Z,31.83
2019-03-27T00:14:46.933Z,31.89
2019-03-27T00:19:50.501Z,32.03
2019-03-27T00:24:54.031Z,32.35
2019-03-27T00:29:57.591Z,32.77
2019-03-27T00:35:01.130Z,33.20
2019-03-27T00:40:06.759Z,34.07
2019-03-27T00:45:10.376Z,34.75
2019-03-27T00:50:13.987Z,34.72
2019-03-27T00:55:17.538Z,34.66
2019-03-27T01:00:35.574Z,33.80
2019-03-27T01:05:39.161Z,32.25
2019-03-27T01:10:42.687Z,32.32
2019-03-27T01:15:46.286Z,31.87
2019-03-27T01:20:49.817Z,31.40
2019-03-27T01:25:53.489Z,31.30
2019-03-27T01:30:57.033Z,31.73
2019-03-27T01:36:00.603Z,31.67
2019-03-27T01:41:04.746Z,31.87
2019-03-27T01:46:08.344Z,32.06
2019-03-27T01:51:11.901Z,32.32
2019-03-27T01:56:15.471Z,32.52
2019-03-27T02:01:19.002Z,32.88
2019-03-27T02:06:22.604Z,34.23
2019-03-27T02:11:26.157Z,34.97
2019-03-27T02:16:29.704Z,35.54
2019-03-27T02:21:33.336Z,35.55
2019-03-27T02:26:36.920Z,34.32
2019-03-27T02:31:40.484Z,32.84
2019-03-27T02:36:44.017Z,32.31
2019-03-27T02:41:47.605Z,31.73
2019-03-27T02:46:51.119Z,31.56
2019-03-27T02:51:54.679Z,31.24
2019-03-27T02:56:58.241Z,31.33
2019-03-27T03:02:01.800Z,31.64
2019-03-27T03:07:05.401Z,31.72
2019-03-27T03:12:08.950Z,31.91
2019-03-27T03:17:12.527Z,31.52
2019-03-27T03:22:16.085Z,32.21
2019-03-27T03:27:19.639Z,33.03
2019-03-27T03:32:23.183Z,33.92
2019-03-27T03:37:26.762Z,35.11
2019-03-27T03:42:30.420Z,36.14
2019-03-27T03:47:33.998Z,36.15
2019-03-27T03:52:37.542Z,35.83
2019-03-27T03:57:41.115Z,34.59
2019-03-27T04:02:44.670Z,32.64
2019-03-27T04:07:48.285Z,32.19
2019-03-27T04:12:51.828Z,31.72
2019-03-27T04:17:55.411Z,31.64
2019-03-27T04:22:58.976Z,31.77
2019-03-27T04:28:02.537Z,31.85
2019-03-27T04:33:06.113Z,31.87
2019-03-27T04:38:09.679Z,32.06
2019-03-27T04:43:13.298Z,31.67
2019-03-27T04:48:16.892Z,32.49
2019-03-27T04:53:20.444Z,32.77
2019-03-27T04:58:23.992Z,33.60
2019-03-27T05:03:27.563Z,34.10
2019-03-27T05:08:31.140Z,35.73
2019-03-27T05:13:34.695Z,36.40
2019-03-27T05:18:38.264Z,36.31
2019-03-27T05:23:41.883Z,35.67
2019-03-27T05:28:45.465Z,34.46
2019-03-27T05:33:49.128Z,32.93
2019-03-27T05:38:52.688Z,32.12
2019-03-27T05:43:56.285Z,32.10
2019-03-27T05:48:59.837Z,31.96
2019-03-27T05:54:03.644Z,32.03
2019-03-27T05:59:07.277Z,31.75
2019-03-27T06:04:10.823Z,31.91
2019-03-27T06:09:14.429Z,31.96
2019-03-27T06:14:17.960Z,32.04
2019-03-27T06:19:21.507Z,31.83
2019-03-27T06:24:25.086Z,31.91
2019-03-27T06:29:28.633Z,31.84
2019-03-27T06:34:32.244Z,31.60
2019-03-27T06:39:35.808Z,31.26
2019-03-27T06:44:39.386Z,31.30
2019-03-27T06:49:42.932Z,30.99
2019-03-27T06:54:46.531Z,30.67
2019-03-27T06:59:50.085Z,30.46
2019-03-27T07:04:53.677Z,30.39
2019-03-27T07:09:57.203Z,30.35
2019-03-27T07:15:00.774Z,29.74
2019-03-27T07:20:06.537Z,30.20
2019-03-27T07:25:10.085Z,31.08
2019-03-27T07:30:13.630Z,30.58
2019-03-27T07:35:17.204Z,30.13
2019-03-27T07:40:20.827Z,30.14
2019-03-27T07:45:24.447Z,31.01
2019-03-27T07:50:28.173Z,31.91
2019-03-27T07:55:31.700Z,31.86
2019-03-27T08:00:39.046Z,32.21
2019-03-27T08:05:43.039Z,31.86
2019-03-27T08:10:47.251Z,31.78
2019-03-27T08:15:52.744Z,32.31
2019-03-27T08:20:56.868Z,32.20
2019-03-27T08:26:01.497Z,32.63
2019-03-27T08:31:06.005Z,32.62
2019-03-27T08:36:10.573Z,32.68
2019-03-27T08:41:15.398Z,32.57
2019-03-27T08:46:19.033Z,32.74
2019-03-27T08:51:22.606Z,32.70
2019-03-27T08:56:26.125Z,32.50
2019-03-27T09:01:29.671Z,32.48
2019-03-27T09:06:34.311Z,32.27
2019-03-27T09:11:37.904Z,31.75
2019-03-27T09:16:41.670Z,32.55
2019-03-27T09:21:46.698Z,32.68
2019-03-27T09:26:50.226Z,32.61
2019-03-27T09:31:53.805Z,32.62
2019-03-27T09:36:57.715Z,32.71
2019-03-27T09:42:01.375Z,32.79
2019-03-27T09:47:05.309Z,32.65
2019-03-27T09:52:09.064Z,32.66
2019-03-27T09:57:12.587Z,32.76
2019-03-27T10:02:16.138Z,32.97
2019-03-27T10:07:19.722Z,32.48
2019-03-27T10:12:23.589Z,32.86
2019-03-27T10:17:27.401Z,32.72
2019-03-27T10:22:31.465Z,33.17
2019-03-27T10:27:35.527Z,32.94
2019-03-27T10:32:39.385Z,32.97
2019-03-27T10:37:42.940Z,32.86
2019-03-27T10:42:46.508Z,32.86
2019-03-27T10:47:50.037Z,33.25
2019-03-27T10:52:53.609Z,33.06
2019-03-27T10:57:57.165Z,32.46
2019-03-27T11:03:00.709Z,33.33
2019-03-27T11:08:05.058Z,32.66
2019-03-27T11:13:08.653Z,33.65
2019-03-27T11:18:12.189Z,34.54
2019-03-27T11:23:15.770Z,35.24
2019-03-27T11:28:19.327Z,35.15
2019-03-27T11:33:22.924Z,35.18
2019-03-27T11:38:26.490Z,34.64
2019-03-27T11:43:30.077Z,35.53
2019-03-27T11:48:33.747Z,35.12
2019-03-27T11:53:37.295Z,35.13
2019-03-27T11:58:41.447Z,35.03
2019-03-27T12:03:45.016Z,34.85
2019-03-27T12:08:50.788Z,35.09
2019-03-27T12:13:53.877Z,34.88
2019-03-27T12:18:57.412Z,34.64
2019-03-27T12:24:01.014Z,34.95
2019-03-27T12:29:04.824Z,35.31
2019-03-27T12:34:08.402Z,34.78
2019-03-27T12:39:11.962Z,35.01
2019-03-27T12:44:15.547Z,34.58
2019-03-27T12:49:19.095Z,34.33
2019-03-27T12:54:22.671Z,33.82
2019-03-27T12:59:26.256Z,34.35
2019-03-27T13:04:29.816Z,34.87
2019-03-27T13:09:33.358Z,35.46
2019-03-27T13:14:36.936Z,34.66
2019-03-27T13:19:40.492Z,33.91
2019-03-27T13:24:44.101Z,34.42
2019-03-27T13:29:47.653Z,34.50
2019-03-27T13:34:51.265Z,34.09
2019-03-27T13:39:54.793Z,34.39
2019-03-27T13:44:58.350Z,34.30
2019-03-27T13:50:01.903Z,34.68
2019-03-27T13:55:07.157Z,34.78
2019-03-27T14:00:13.091Z,34.43
2019-03-27T14:05:16.693Z,33.63
2019-03-27T14:10:20.218Z,33.17
2019-03-27T14:15:23.939Z,32.35
2019-03-27T14:20:27.504Z,31.96
2019-03-27T14:25:31.091Z,31.41
2019-03-27T14:30:52.288Z,31.38
2019-03-27T14:35:55.824Z,31.49
2019-03-27T14:40:59.366Z,31.22
2019-03-27T14:46:02.957Z,31.35
2019-03-27T14:51:06.506Z,31.88
2019-03-27T14:56:10.126Z,32.08
2019-03-27T15:01:13.708Z,32.31
2019-03-27T15:06:17.308Z,32.30
2019-03-27T15:11:20.903Z,33.95
2019-03-27T15:16:24.437Z,35.41
2019-03-27T15:21:28.084Z,34.26
2019-03-27T15:26:31.701Z,34.80
2019-03-27T15:31:35.241Z,35.37
2019-03-27T15:36:38.842Z,34.57
2019-03-27T15:41:42.466Z,36.64
2019-03-27T15:46:46.081Z,36.87
2019-03-27T15:51:49.701Z,36.24
2019-03-27T15:56:53.319Z,35.71
2019-03-27T16:01:58.018Z,35.53
2019-03-27T16:07:01.823Z,36.04
2019-03-27T16:12:05.443Z,35.88
2019-03-27T16:17:13.550Z,35.36
2019-03-27T16:22:14.235Z,35.62
2019-03-27T16:27:17.833Z,35.42
2019-03-27T16:32:21.356Z,35.97
2019-03-27T16:37:24.969Z,36.11
2019-03-27T16:42:28.585Z,36.70
2019-03-27T16:47:32.160Z,37.11
2019-03-27T16:52:36.743Z,36.36
2019-03-27T16:57:40.354Z,36.18
2019-03-27T17:02:43.914Z,37.25
2019-03-27T17:07:47.490Z,35.18
2019-03-27T17:12:51.453Z,35.83
2019-03-27T17:17:55.623Z,36.45
2019-03-27T17:22:59.521Z,36.53
2019-03-27T17:28:04.159Z,36.96
2019-03-27T17:33:08.435Z,36.82
2019-03-27T17:38:12.139Z,36.09
2019-03-27T17:43:15.991Z,35.54
2019-03-27T17:48:21.076Z,35.06
2019-03-27T17:53:31.664Z,35.00
2019-03-27T17:58:31.366Z,34.58
2019-03-27T18:03:35.405Z,34.75
2019-03-27T18:08:40.444Z,34.62
2019-03-27T18:13:44.441Z,35.24
2019-03-27T18:18:48.228Z,35.61
2019-03-27T18:23:52.235Z,36.26
2019-03-27T18:28:55.936Z,36.68
2019-03-27T18:33:59.641Z,36.28
2019-03-27T18:39:04.227Z,36.96
2019-03-27T18:44:08.020Z,37.33
2019-03-27T18:49:11.611Z,37.91
2019-03-27T18:54:15.177Z,36.91
2019-03-27T18:59:18.751Z,38.41
2019-03-27T19:04:22.288Z,38.44
2019-03-27T19:09:25.986Z,37.59
2019-03-27T19:14:29.504Z,37.71
2019-03-27T19:19:33.117Z,37.89
2019-03-27T19:24:36.650Z,37.58
2019-03-27T19:29:40.233Z,37.35
2019-03-27T19:34:43.843Z,37.48
2019-03-27T19:39:47.377Z,36.36
2019-03-27T19:44:50.946Z,35.77
2019-03-27T19:49:54.555Z,35.70
2019-03-27T19:54:58.170Z,35.27
2019-03-27T20:00:01.759Z,33.76
2019-03-27T20:05:06.415Z,34.25
2019-03-27T20:10:09.973Z,33.95
2019-03-27T20:15:13.576Z,35.70
2019-03-27T20:20:17.156Z,36.23
2019-03-27T20:25:20.815Z,36.51
2019-03-27T20:30:26.874Z,37.01
2019-03-27T20:35:29.788Z,37.45
2019-03-27T20:40:33.410Z,37.61
2019-03-27T20:45:36.958Z,38.46
2019-03-27T20:50:40.513Z,37.94
2019-03-27T20:55:44.050Z,37.95
2019-03-27T21:00:48.193Z,38.32
2019-03-27T21:05:51.916Z,37.39
2019-03-27T21:10:55.927Z,37.73
2019-03-27T21:15:59.959Z,36.19
2019-03-27T21:21:03.866Z,34.46
2019-03-27T21:26:09.690Z,33.59
2019-03-27T21:31:13.149Z,32.62
2019-03-27T21:36:17.154Z,32.01
2019-03-27T21:41:20.795Z,31.69
2019-03-27T21:46:24.532Z,31.73
2019-03-27T21:51:28.221Z,31.65
2019-03-27T21:56:32.129Z,32.12
2019-03-27T22:01:36.053Z,32.38
2019-03-27T22:06:39.738Z,32.42
2019-03-27T22:11:43.480Z,32.74
2019-03-27T22:16:47.488Z,32.93
2019-03-27T22:21:51.200Z,33.66
2019-03-27T22:26:55.062Z,33.95
2019-03-27T22:31:59.185Z,34.33
2019-03-27T22:37:02.789Z,34.67
2019-03-27T22:42:06.348Z,37.42
2019-03-27T22:47:09.908Z,38.41
2019-03-27T22:52:13.472Z,39.28
2019-03-27T22:57:17.073Z,38.50
2019-03-27T23:02:20.666Z,39.69
2019-03-27T23:07:24.356Z,39.89
2019-03-27T23:12:27.912Z,39.89
2019-03-27T23:17:31.515Z,36.95
2019-03-27T23:22:35.075Z,38.30
2019-03-27T23:27:38.643Z,37.52
2019-03-27T23:32:45.306Z,36.30
2019-03-27T23:37:48.943Z,35.48
2019-03-27T23:42:52.559Z,34.14
2019-03-27T23:47:56.139Z,33.59
2019-03-27T23:52:59.721Z,33.18
2019-03-27T23:58:03.343Z,33.23
